sensor_id;sensor_type;location;lat;lon;timestamp;pressure;altitude;pressure_sealevel;temperature;humidity
64460;BME280;50828;53.756;21.140;2022-12-18T00:04:22;101163.59;;;-5.66;68.15
64460;BME280;50828;53.756;21.140;2022-12-18T00:09:31;101175.67;;;-5.64;68.18
64460;BME280;50828;53.756;21.140;2022-12-18T00:14:48;101177.62;;;-5.62;68.23
64460;BME280;50828;53.756;21.140;2022-12-18T00:19:57;101180.40;;;-5.62;68.32
64460;BME280;50828;53.756;21.140;2022-12-18T00:25:05;101181.77;;;-5.62;68.26
64460;BME280;50828;53.756;21.140;2022-12-18T00:30:14;101184.14;;;-5.63;68.16
64460;BME280;50828;53.756;21.140;2022-12-18T00:35:23;101196.30;;;-5.63;68.14
64460;BME280;50828;53.756;21.140;2022-12-18T00:40:31;101193.90;;;-5.63;68.30
64460;BME280;50828;53.756;21.140;2022-12-18T00:45:39;101195.96;;;-5.64;68.09
64460;BME280;50828;53.756;21.140;2022-12-18T00:50:49;101206.90;;;-5.64;68.16
64460;BME280;50828;53.756;21.140;2022-12-18T00:55:58;101217.66;;;-5.65;68.10
64460;BME280;50828;53.756;21.140;2022-12-18T01:01:07;101223.60;;;-5.67;68.18
64460;BME280;50828;53.756;21.140;2022-12-18T01:06:16;101227.80;;;-5.69;68.12
64460;BME280;50828;53.756;21.140;2022-12-18T01:11:25;101234.09;;;-5.71;68.03
64460;BME280;50828;53.756;21.140;2022-12-18T01:16:34;101238.52;;;-5.72;68.09
64460;BME280;50828;53.756;21.140;2022-12-18T01:21:43;101240.34;;;-5.74;68.02
64460;BME280;50828;53.756;21.140;2022-12-18T01:26:52;101241.17;;;-5.74;68.13
64460;BME280;50828;53.756;21.140;2022-12-18T01:32:01;101244.34;;;-5.76;68.11
64460;BME280;50828;53.756;21.140;2022-12-18T01:37:09;101245.61;;;-5.78;67.96
64460;BME280;50828;53.756;21.140;2022-12-18T01:42:17;101248.77;;;-5.81;68.09
64460;BME280;50828;53.756;21.140;2022-12-18T01:47:30;101254.79;;;-5.84;68.08
64460;BME280;50828;53.756;21.140;2022-12-18T01:52:45;101261.69;;;-5.87;67.91
64460;BME280;50828;53.756;21.140;2022-12-18T01:57:57;101268.19;;;-5.92;67.83
64460;BME280;50828;53.756;21.140;2022-12-18T02:03:06;101268.02;;;-5.95;67.87
64460;BME280;50828;53.756;21.140;2022-12-18T02:08:19;101275.55;;;-6.00;67.73
64460;BME280;50828;53.756;21.140;2022-12-18T02:13:36;101280.92;;;-6.06;67.76
64460;BME280;50828;53.756;21.140;2022-12-18T02:18:50;101287.35;;;-6.12;67.70
64460;BME280;50828;53.756;21.140;2022-12-18T02:24:13;101297.09;;;-6.17;67.66
64460;BME280;50828;53.756;21.140;2022-12-18T02:29:28;101299.20;;;-6.19;67.67
64460;BME280;50828;53.756;21.140;2022-12-18T02:34:41;101304.86;;;-6.23;67.66
64460;BME280;50828;53.756;21.140;2022-12-18T02:39:55;101312.24;;;-6.26;67.67
64460;BME280;50828;53.756;21.140;2022-12-18T02:45:06;101319.15;;;-6.33;67.54
64460;BME280;50828;53.756;21.140;2022-12-18T02:50:19;101322.80;;;-6.39;67.52
64460;BME280;50828;53.756;21.140;2022-12-18T02:55:39;101324.91;;;-6.45;67.44
64460;BME280;50828;53.756;21.140;2022-12-18T03:00:57;101338.13;;;-6.52;67.55
64460;BME280;50828;53.756;21.140;2022-12-18T03:06:10;101343.02;;;-6.57;67.48
64460;BME280;50828;53.756;21.140;2022-12-18T03:11:24;101348.83;;;-6.61;67.64
64460;BME280;50828;53.756;21.140;2022-12-18T03:16:53;101361.30;;;-6.66;67.62
64460;BME280;50828;53.756;21.140;2022-12-18T03:22:05;101361.29;;;-6.69;67.58
64460;BME280;50828;53.756;21.140;2022-12-18T03:27:24;101364.02;;;-6.73;67.50
64460;BME280;50828;53.756;21.140;2022-12-18T03:32:38;101369.98;;;-6.77;67.42
64460;BME280;50828;53.756;21.140;2022-12-18T03:37:49;101374.71;;;-6.81;67.37
64460;BME280;50828;53.756;21.140;2022-12-18T03:43:02;101380.30;;;-6.86;67.54
64460;BME280;50828;53.756;21.140;2022-12-18T03:48:17;101379.09;;;-6.90;67.35
64460;BME280;50828;53.756;21.140;2022-12-18T03:53:36;101387.28;;;-6.94;67.39
64460;BME280;50828;53.756;21.140;2022-12-18T03:58:48;101393.60;;;-6.97;67.36
64460;BME280;50828;53.756;21.140;2022-12-18T04:04:02;101415.30;;;-7.02;67.24
64460;BME280;50828;53.756;21.140;2022-12-18T04:09:13;101425.64;;;-7.07;67.34
64460;BME280;50828;53.756;21.140;2022-12-18T04:14:24;101433.06;;;-7.13;67.23
64460;BME280;50828;53.756;21.140;2022-12-18T04:19:34;101440.35;;;-7.17;67.28
64460;BME280;50828;53.756;21.140;2022-12-18T04:24:43;101438.06;;;-7.22;67.33
64460;BME280;50828;53.756;21.140;2022-12-18T04:29:58;101450.73;;;-7.25;67.42
64460;BME280;50828;53.756;21.140;2022-12-18T04:35:09;101460.72;;;-7.27;67.41
64460;BME280;50828;53.756;21.140;2022-12-18T04:40:20;101469.62;;;-7.30;67.23
64460;BME280;50828;53.756;21.140;2022-12-18T04:45:29;101477.20;;;-7.36;67.25
64460;BME280;50828;53.756;21.140;2022-12-18T04:50:37;101484.54;;;-7.43;67.27
64460;BME280;50828;53.756;21.140;2022-12-18T04:55:46;101490.33;;;-7.49;67.29
64460;BME280;50828;53.756;21.140;2022-12-18T05:00:54;101494.05;;;-7.53;67.30
64460;BME280;50828;53.756;21.140;2022-12-18T05:06:02;101493.14;;;-7.58;67.40
64460;BME280;50828;53.756;21.140;2022-12-18T05:11:13;101492.71;;;-7.59;67.45
64460;BME280;50828;53.756;21.140;2022-12-18T05:16:22;101500.30;;;-7.61;67.37
64460;BME280;50828;53.756;21.140;2022-12-18T05:21:30;101509.77;;;-7.64;67.58
64460;BME280;50828;53.756;21.140;2022-12-18T05:26:39;101509.77;;;-7.66;67.51
64460;BME280;50828;53.756;21.140;2022-12-18T05:31:47;101510.31;;;-7.69;67.30
64460;BME280;50828;53.756;21.140;2022-12-18T05:36:56;101520.38;;;-7.72;67.27
64460;BME280;50828;53.756;21.140;2022-12-18T05:42:04;101531.63;;;-7.76;67.21
64460;BME280;50828;53.756;21.140;2022-12-18T05:47:13;101543.36;;;-7.80;67.04
64460;BME280;50828;53.756;21.140;2022-12-18T05:52:21;101550.38;;;-7.87;66.97
64460;BME280;50828;53.756;21.140;2022-12-18T05:57:30;101554.85;;;-7.95;66.97
64460;BME280;50828;53.756;21.140;2022-12-18T06:02:38;101560.73;;;-8.00;66.98
64460;BME280;50828;53.756;21.140;2022-12-18T06:07:46;101558.64;;;-8.03;66.95
64460;BME280;50828;53.756;21.140;2022-12-18T06:12:55;101566.61;;;-8.04;67.09
64460;BME280;50828;53.756;21.140;2022-12-18T06:18:04;101572.79;;;-8.04;67.24
64460;BME280;50828;53.756;21.140;2022-12-18T06:23:12;101586.59;;;-8.02;67.29
64460;BME280;50828;53.756;21.140;2022-12-18T06:28:21;101592.09;;;-7.99;67.43
64460;BME280;50828;53.756;21.140;2022-12-18T06:33:29;101589.44;;;-7.94;67.47
64460;BME280;50828;53.756;21.140;2022-12-18T06:38:40;101603.54;;;-7.90;67.52
64460;BME280;50828;53.756;21.140;2022-12-18T06:43:48;101606.95;;;-7.84;67.55
64460;BME280;50828;53.756;21.140;2022-12-18T06:49:03;101601.24;;;-7.76;67.61
64460;BME280;50828;53.756;21.140;2022-12-18T06:54:12;101594.84;;;-7.69;67.79
64460;BME280;50828;53.756;21.140;2022-12-18T06:59:20;101609.96;;;-7.61;67.75
64460;BME280;50828;53.756;21.140;2022-12-18T07:04:31;101601.11;;;-7.55;67.66
64460;BME280;50828;53.756;21.140;2022-12-18T07:09:40;101606.05;;;-7.49;67.70
64460;BME280;50828;53.756;21.140;2022-12-18T07:14:48;101610.45;;;-7.44;67.69
64460;BME280;50828;53.756;21.140;2022-12-18T07:19:56;101617.85;;;-7.37;67.74
64460;BME280;50828;53.756;21.140;2022-12-18T07:25:06;101622.55;;;-7.33;67.84
64460;BME280;50828;53.756;21.140;2022-12-18T07:30:15;101629.02;;;-7.27;67.87
64460;BME280;50828;53.756;21.140;2022-12-18T07:35:23;101634.34;;;-7.21;67.86
64460;BME280;50828;53.756;21.140;2022-12-18T07:40:32;101623.64;;;-7.25;67.93
64460;BME280;50828;53.756;21.140;2022-12-18T07:45:40;101652.83;;;-7.11;67.84
64460;BME280;50828;53.756;21.140;2022-12-18T07:50:49;101655.92;;;-7.08;67.93
64460;BME280;50828;53.756;21.140;2022-12-18T07:55:59;101652.83;;;-7.03;67.93
64460;BME280;50828;53.756;21.140;2022-12-18T08:01:28;101664.45;;;-6.94;68.01
64460;BME280;50828;53.756;21.140;2022-12-18T08:06:37;101668.67;;;-6.85;67.96
64460;BME280;50828;53.756;21.140;2022-12-18T08:11:52;101670.94;;;-6.81;67.97
64460;BME280;50828;53.756;21.140;2022-12-18T08:17:00;101672.23;;;-6.77;68.01
64460;BME280;50828;53.756;21.140;2022-12-18T08:22:09;101674.67;;;-6.73;68.05
64460;BME280;50828;53.756;21.140;2022-12-18T08:27:18;101690.07;;;-6.67;68.11
64460;BME280;50828;53.756;21.140;2022-12-18T08:32:36;101680.44;;;-6.58;67.99
64460;BME280;50828;53.756;21.140;2022-12-18T08:37:45;101689.59;;;-6.51;68.27
64460;BME280;50828;53.756;21.140;2022-12-18T08:42:53;101696.02;;;-6.42;68.25
64460;BME280;50828;53.756;21.140;2022-12-18T08:48:19;101710.20;;;-6.37;68.30
64460;BME280;50828;53.756;21.140;2022-12-18T08:53:30;101714.50;;;-6.31;68.28
64460;BME280;50828;53.756;21.140;2022-12-18T08:58:41;101715.22;;;-6.23;68.46
64460;BME280;50828;53.756;21.140;2022-12-18T09:03:52;101723.85;;;-6.16;68.57
64460;BME280;50828;53.756;21.140;2022-12-18T09:09:01;101711.27;;;-6.04;68.50
64460;BME280;50828;53.756;21.140;2022-12-18T09:14:10;101713.41;;;-5.92;68.53
64460;BME280;50828;53.756;21.140;2022-12-18T09:19:19;101706.84;;;-5.79;68.59
64460;BME280;50828;53.756;21.140;2022-12-18T09:24:27;101705.73;;;-5.68;68.61
64460;BME280;50828;53.756;21.140;2022-12-18T09:29:35;101706.33;;;-5.59;68.49
64460;BME280;50828;53.756;21.140;2022-12-18T09:34:44;101702.22;;;-5.52;68.58
64460;BME280;50828;53.756;21.140;2022-12-18T09:39:52;101712.45;;;-5.47;68.47
64460;BME280;50828;53.756;21.140;2022-12-18T09:45:01;101715.52;;;-5.41;68.68
64460;BME280;50828;53.756;21.140;2022-12-18T09:50:23;101714.23;;;-5.35;68.77
64460;BME280;50828;53.756;21.140;2022-12-18T09:55:31;101729.15;;;-5.29;68.78
64460;BME280;50828;53.756;21.140;2022-12-18T10:00:48;101743.38;;;-5.22;68.86
64460;BME280;50828;53.756;21.140;2022-12-18T10:06:06;101743.16;;;-5.16;68.78
64460;BME280;50828;53.756;21.140;2022-12-18T10:11:31;101759.48;;;-5.09;68.97
64460;BME280;50828;53.756;21.140;2022-12-18T10:16:56;101761.48;;;-5.04;69.05
64460;BME280;50828;53.756;21.140;2022-12-18T10:22:16;101757.84;;;-4.97;68.92
64460;BME280;50828;53.756;21.140;2022-12-18T10:27:30;101758.80;;;-4.92;69.03
64460;BME280;50828;53.756;21.140;2022-12-18T10:32:39;101765.31;;;-4.85;69.00
64460;BME280;50828;53.756;21.140;2022-12-18T10:38:03;101771.45;;;-4.79;69.08
64460;BME280;50828;53.756;21.140;2022-12-18T10:43:15;101767.69;;;-4.71;69.12
64460;BME280;50828;53.756;21.140;2022-12-18T10:48:24;101774.52;;;-4.66;69.11
64460;BME280;50828;53.756;21.140;2022-12-18T10:53:34;101768.26;;;-4.59;69.14
64460;BME280;50828;53.756;21.140;2022-12-18T10:58:43;101764.77;;;-4.53;69.28
64460;BME280;50828;53.756;21.140;2022-12-18T11:04:09;101758.38;;;-4.47;69.24
64460;BME280;50828;53.756;21.140;2022-12-18T11:09:23;101751.40;;;-4.42;69.19
64460;BME280;50828;53.756;21.140;2022-12-18T11:14:34;101750.58;;;-4.37;69.26
64460;BME280;50828;53.756;21.140;2022-12-18T11:19:56;101756.80;;;-4.32;69.27
64460;BME280;50828;53.756;21.140;2022-12-18T11:25:16;101754.59;;;-4.29;69.29
64460;BME280;50828;53.756;21.140;2022-12-18T11:30:42;101756.65;;;-4.25;69.31
64460;BME280;50828;53.756;21.140;2022-12-18T11:35:52;101755.85;;;-4.19;69.24
64460;BME280;50828;53.756;21.140;2022-12-18T11:41:07;101748.59;;;-4.17;69.36
64460;BME280;50828;53.756;21.140;2022-12-18T11:46:26;101746.65;;;-4.14;69.32
64460;BME280;50828;53.756;21.140;2022-12-18T11:51:44;101754.90;;;-4.10;69.27
64460;BME280;50828;53.756;21.140;2022-12-18T11:57:05;101758.40;;;-4.09;69.24
64460;BME280;50828;53.756;21.140;2022-12-18T12:02:34;101768.25;;;-4.08;69.20
64460;BME280;50828;53.756;21.140;2022-12-18T12:07:53;101763.83;;;-4.07;69.01
64460;BME280;50828;53.756;21.140;2022-12-18T12:13:18;101762.29;;;-4.07;68.98
64460;BME280;50828;53.756;21.140;2022-12-18T12:18:40;101764.59;;;-4.09;68.76
64460;BME280;50828;53.756;21.140;2022-12-18T12:23:59;101779.30;;;-4.15;68.73
64460;BME280;50828;53.756;21.140;2022-12-18T12:29:25;101793.79;;;-4.21;68.72
64460;BME280;50828;53.756;21.140;2022-12-18T12:34:42;101792.73;;;-4.29;68.61
64460;BME280;50828;53.756;21.140;2022-12-18T12:39:53;101796.20;;;-4.36;68.51
64460;BME280;50828;53.756;21.140;2022-12-18T12:45:04;101802.02;;;-4.41;68.61
64460;BME280;50828;53.756;21.140;2022-12-18T12:50:18;101804.80;;;-4.44;68.76
64460;BME280;50828;53.756;21.140;2022-12-18T12:55:28;101828.29;;;-4.45;68.90
64460;BME280;50828;53.756;21.140;2022-12-18T13:00:44;101827.86;;;-4.47;68.79
64460;BME280;50828;53.756;21.140;2022-12-18T13:05:59;101848.02;;;-4.46;68.98
64460;BME280;50828;53.756;21.140;2022-12-18T13:11:37;101855.38;;;-4.47;69.04
64460;BME280;50828;53.756;21.140;2022-12-18T13:17:34;101868.65;;;-4.46;69.16
64460;BME280;50828;53.756;21.140;2022-12-18T13:22:45;101856.82;;;-4.45;69.15
64460;BME280;50828;53.756;21.140;2022-12-18T13:28:12;101848.73;;;-4.45;69.29
64460;BME280;50828;53.756;21.140;2022-12-18T13:33:49;101851.81;;;-4.46;69.24
64460;BME280;50828;53.756;21.140;2022-12-18T13:39:35;101859.41;;;-4.45;69.25
64460;BME280;50828;53.756;21.140;2022-12-18T13:44:43;101858.28;;;-4.44;69.34
64460;BME280;50828;53.756;21.140;2022-12-18T13:49:54;101863.52;;;-4.42;69.41
64460;BME280;50828;53.756;21.140;2022-12-18T13:55:06;101873.39;;;-4.40;69.45
64460;BME280;50828;53.756;21.140;2022-12-18T14:00:29;101880.08;;;-4.38;69.52
64460;BME280;50828;53.756;21.140;2022-12-18T14:05:36;101881.75;;;-4.35;69.64
64460;BME280;50828;53.756;21.140;2022-12-18T14:10:51;101886.86;;;-4.32;69.57
64460;BME280;50828;53.756;21.140;2022-12-18T14:16:02;101886.27;;;-4.30;69.66
64460;BME280;50828;53.756;21.140;2022-12-18T14:21:19;101887.73;;;-4.28;69.56
64460;BME280;50828;53.756;21.140;2022-12-18T14:26:30;101892.85;;;-4.26;69.70
64460;BME280;50828;53.756;21.140;2022-12-18T14:31:39;101899.31;;;-4.24;69.72
64460;BME280;50828;53.756;21.140;2022-12-18T14:36:55;101893.89;;;-4.22;69.65
64460;BME280;50828;53.756;21.140;2022-12-18T14:42:03;101911.31;;;-4.21;69.88
64460;BME280;50828;53.756;21.140;2022-12-18T14:47:17;101925.82;;;-4.20;69.86
64460;BME280;50828;53.756;21.140;2022-12-18T14:52:29;101926.26;;;-4.18;69.73
64460;BME280;50828;53.756;21.140;2022-12-18T14:57:40;101921.99;;;-4.17;69.78
64460;BME280;50828;53.756;21.140;2022-12-18T15:02:52;101920.82;;;-4.17;69.86
64460;BME280;50828;53.756;21.140;2022-12-18T15:08:02;101928.42;;;-4.16;69.85
64460;BME280;50828;53.756;21.140;2022-12-18T15:13:22;101938.26;;;-4.15;69.94
64460;BME280;50828;53.756;21.140;2022-12-18T15:18:33;101939.10;;;-4.16;69.93
64460;BME280;50828;53.756;21.140;2022-12-18T15:23:48;101936.84;;;-4.16;69.90
64460;BME280;50828;53.756;21.140;2022-12-18T15:28:58;101941.27;;;-4.17;69.87
64460;BME280;50828;53.756;21.140;2022-12-18T15:34:21;101947.98;;;-4.17;69.95
64460;BME280;50828;53.756;21.140;2022-12-18T15:39:30;101938.85;;;-4.18;69.82
64460;BME280;50828;53.756;21.140;2022-12-18T15:44:38;101931.28;;;-4.17;70.01
64460;BME280;50828;53.756;21.140;2022-12-18T15:49:47;101942.63;;;-4.18;69.90
64460;BME280;50828;53.756;21.140;2022-12-18T15:54:57;101941.39;;;-4.19;69.74
64460;BME280;50828;53.756;21.140;2022-12-18T16:00:24;101940.12;;;-4.20;69.72
64460;BME280;50828;53.756;21.140;2022-12-18T16:05:33;101942.29;;;-4.21;69.79
64460;BME280;50828;53.756;21.140;2022-12-18T16:10:42;101941.70;;;-4.23;69.57
64460;BME280;50828;53.756;21.140;2022-12-18T16:15:50;101935.20;;;-4.26;69.62
64460;BME280;50828;53.756;21.140;2022-12-18T16:20:59;101930.23;;;-4.29;69.64
64460;BME280;50828;53.756;21.140;2022-12-18T16:26:09;101927.31;;;-4.32;69.54
64460;BME280;50828;53.756;21.140;2022-12-18T16:31:17;101922.70;;;-4.34;69.54
64460;BME280;50828;53.756;21.140;2022-12-18T16:37:34;101911.69;;;-4.38;69.34
64460;BME280;50828;53.756;21.140;2022-12-18T16:43:35;101912.30;;;-4.40;69.75
64460;BME280;50828;53.756;21.140;2022-12-18T16:48:45;101908.23;;;-4.35;69.78
64460;BME280;50828;53.756;21.140;2022-12-18T16:53:53;101915.27;;;-4.36;69.64
64460;BME280;50828;53.756;21.140;2022-12-18T16:59:04;101911.91;;;-4.37;69.55
64460;BME280;50828;53.756;21.140;2022-12-18T17:04:13;101920.90;;;-4.40;69.54
64460;BME280;50828;53.756;21.140;2022-12-18T17:09:22;101935.49;;;-4.44;69.49
64460;BME280;50828;53.756;21.140;2022-12-18T17:14:33;101942.59;;;-4.47;69.47
64460;BME280;50828;53.756;21.140;2022-12-18T17:19:42;101934.77;;;-4.48;69.31
64460;BME280;50828;53.756;21.140;2022-12-18T17:24:50;101927.11;;;-4.50;69.19
64460;BME280;50828;53.756;21.140;2022-12-18T17:29:59;101934.58;;;-4.52;69.38
64460;BME280;50828;53.756;21.140;2022-12-18T17:35:08;101942.51;;;-4.55;69.20
64460;BME280;50828;53.756;21.140;2022-12-18T17:40:17;101946.20;;;-4.57;69.25
64460;BME280;50828;53.756;21.140;2022-12-18T17:45:26;101945.85;;;-4.60;69.30
64460;BME280;50828;53.756;21.140;2022-12-18T17:50:35;101940.20;;;-4.64;69.28
64460;BME280;50828;53.756;21.140;2022-12-18T17:55:44;101942.45;;;-4.67;69.13
64460;BME280;50828;53.756;21.140;2022-12-18T18:01:04;101927.06;;;-4.78;69.09
64460;BME280;50828;53.756;21.140;2022-12-18T18:06:10;101946.14;;;-4.72;69.19
64460;BME280;50828;53.756;21.140;2022-12-18T18:11:21;101949.86;;;-4.73;69.30
64460;BME280;50828;53.756;21.140;2022-12-18T18:16:49;101957.33;;;-4.75;69.26
64460;BME280;50828;53.756;21.140;2022-12-18T18:22:01;101954.94;;;-4.77;69.28
64460;BME280;50828;53.756;21.140;2022-12-18T18:27:10;101959.48;;;-4.80;69.33
64460;BME280;50828;53.756;21.140;2022-12-18T18:32:18;101962.27;;;-4.83;69.11
64460;BME280;50828;53.756;21.140;2022-12-18T18:37:27;101968.73;;;-4.87;69.17
64460;BME280;50828;53.756;21.140;2022-12-18T18:42:35;101974.73;;;-4.90;69.08
64460;BME280;50828;53.756;21.140;2022-12-18T18:47:43;101972.80;;;-4.94;68.98
64460;BME280;50828;53.756;21.140;2022-12-18T18:52:52;101980.38;;;-4.97;69.02
64460;BME280;50828;53.756;21.140;2022-12-18T18:58:02;101986.92;;;-5.01;68.97
64460;BME280;50828;53.756;21.140;2022-12-18T19:03:11;101991.39;;;-5.04;69.07
64460;BME280;50828;53.756;21.140;2022-12-18T19:08:21;101985.78;;;-5.06;69.11
64460;BME280;50828;53.756;21.140;2022-12-18T19:13:31;101974.52;;;-5.08;69.14
64460;BME280;50828;53.756;21.140;2022-12-18T19:18:39;101955.20;;;-5.16;69.18
64460;BME280;50828;53.756;21.140;2022-12-18T19:23:48;101979.42;;;-5.09;69.22
64460;BME280;50828;53.756;21.140;2022-12-18T19:29:01;101979.11;;;-5.12;69.33
64460;BME280;50828;53.756;21.140;2022-12-18T19:34:10;101975.75;;;-5.13;69.22
64460;BME280;50828;53.756;21.140;2022-12-18T19:39:19;101976.04;;;-5.15;69.24
64460;BME280;50828;53.756;21.140;2022-12-18T19:44:28;101961.27;;;-5.24;69.26
64460;BME280;50828;53.756;21.140;2022-12-18T19:49:36;101980.96;;;-5.16;69.30
64460;BME280;50828;53.756;21.140;2022-12-18T19:54:45;101979.34;;;-5.17;69.19
64460;BME280;50828;53.756;21.140;2022-12-18T19:59:54;101976.83;;;-5.20;69.33
64460;BME280;50828;53.756;21.140;2022-12-18T20:05:03;101977.75;;;-5.21;69.25
64460;BME280;50828;53.756;21.140;2022-12-18T20:10:14;101965.80;;;-5.23;69.18
64460;BME280;50828;53.756;21.140;2022-12-18T20:15:24;101958.67;;;-5.25;69.35
64460;BME280;50828;53.756;21.140;2022-12-18T20:20:32;101962.50;;;-5.24;69.48
64460;BME280;50828;53.756;21.140;2022-12-18T20:25:41;101962.81;;;-5.24;69.40
64460;BME280;50828;53.756;21.140;2022-12-18T20:30:50;101966.55;;;-5.25;69.36
64460;BME280;50828;53.756;21.140;2022-12-18T20:36:03;101963.95;;;-5.25;69.44
64460;BME280;50828;53.756;21.140;2022-12-18T20:41:17;101967.98;;;-5.24;69.40
64460;BME280;50828;53.756;21.140;2022-12-18T20:46:26;101971.91;;;-5.24;69.48
64460;BME280;50828;53.756;21.140;2022-12-18T20:51:34;101982.28;;;-5.23;69.58
64460;BME280;50828;53.756;21.140;2022-12-18T20:56:43;101987.91;;;-5.24;69.43
64460;BME280;50828;53.756;21.140;2022-12-18T21:01:55;101990.95;;;-5.25;69.52
64460;BME280;50828;53.756;21.140;2022-12-18T21:07:04;101993.49;;;-5.26;69.43
64460;BME280;50828;53.756;21.140;2022-12-18T21:12:14;101990.17;;;-5.27;69.64
64460;BME280;50828;53.756;21.140;2022-12-18T21:17:51;101988.97;;;-5.27;69.66
64460;BME280;50828;53.756;21.140;2022-12-18T21:23:00;101984.58;;;-5.25;69.59
64460;BME280;50828;53.756;21.140;2022-12-18T21:28:23;101984.59;;;-5.25;69.77
64460;BME280;50828;53.756;21.140;2022-12-18T21:33:31;101977.73;;;-5.25;69.87
64460;BME280;50828;53.756;21.140;2022-12-18T21:38:40;101972.73;;;-5.25;69.66
64460;BME280;50828;53.756;21.140;2022-12-18T21:43:52;101966.41;;;-5.24;69.78
64460;BME280;50828;53.756;21.140;2022-12-18T21:49:16;101962.66;;;-5.24;69.90
64460;BME280;50828;53.756;21.140;2022-12-18T21:54:27;101961.01;;;-5.23;69.82
64460;BME280;50828;53.756;21.140;2022-12-18T21:59:38;101947.80;;;-5.22;69.82
64460;BME280;50828;53.756;21.140;2022-12-18T22:04:47;101944.73;;;-5.22;69.87
64460;BME280;50828;53.756;21.140;2022-12-18T22:09:56;101930.39;;;-5.27;69.83
64460;BME280;50828;53.756;21.140;2022-12-18T22:15:08;101946.36;;;-5.17;69.93
64460;BME280;50828;53.756;21.140;2022-12-18T22:20:16;101943.13;;;-5.17;69.84
64460;BME280;50828;53.756;21.140;2022-12-18T22:25:25;101937.09;;;-5.17;69.91
64460;BME280;50828;53.756;21.140;2022-12-18T22:30:34;101926.09;;;-5.17;69.93
64460;BME280;50828;53.756;21.140;2022-12-18T22:35:42;101925.68;;;-5.15;69.85
64460;BME280;50828;53.756;21.140;2022-12-18T22:40:51;101931.59;;;-5.13;70.00
64460;BME280;50828;53.756;21.140;2022-12-18T22:46:07;101936.34;;;-5.12;69.88
64460;BME280;50828;53.756;21.140;2022-12-18T22:51:18;101939.05;;;-5.09;70.10
64460;BME280;50828;53.756;21.140;2022-12-18T22:56:27;101944.46;;;-5.07;70.02
64460;BME280;50828;53.756;21.140;2022-12-18T23:01:35;101941.39;;;-5.07;69.95
64460;BME280;50828;53.756;21.140;2022-12-18T23:06:45;101941.73;;;-5.07;70.00
64460;BME280;50828;53.756;21.140;2022-12-18T23:11:54;101939.59;;;-5.09;69.78
64460;BME280;50828;53.756;21.140;2022-12-18T23:17:02;101947.77;;;-5.13;69.57
64460;BME280;50828;53.756;21.140;2022-12-18T23:22:10;101951.37;;;-5.20;69.44
64460;BME280;50828;53.756;21.140;2022-12-18T23:27:19;101941.15;;;-5.25;69.39
64460;BME280;50828;53.756;21.140;2022-12-18T23:32:27;101935.59;;;-5.29;69.26
64460;BME280;50828;53.756;21.140;2022-12-18T23:37:38;101937.38;;;-5.34;69.33
64460;BME280;50828;53.756;21.140;2022-12-18T23:43:07;101939.36;;;-5.39;69.16
64460;BME280;50828;53.756;21.140;2022-12-18T23:48:15;101936.75;;;-5.43;69.30
64460;BME280;50828;53.756;21.140;2022-12-18T23:53:23;101943.79;;;-5.46;69.27
64460;BME280;50828;53.756;21.140;2022-12-18T23:58:32;101952.91;;;-5.49;69.31
